TAM3112 SBBR-SBCY
Flight info
| Callsign | TAM3112 |
|---|---|
| Flight time | 1h 27m |
| Altitude | 34000 |
| Route | SIREM DCT LODOV DCT MABMA DCT BOKIM |
| Aircraft | A320/M-SDE3FGHIRWY/LB1 |
Departure
| Time | 2026-04-20 01:42 |
|---|---|
| Airport | Presidente Juscelino Kubitschek International Airport (SBBR) |
Arrival
| Time | 2026-04-20 03:10 |
|---|---|
| Airport | Várzea Grande–Marechal Rondon International Airport (SBCY) |
| Time | Latitude | Longitude | Altitude | Speed | Heading |
|---|---|---|---|---|---|
| 2026-04-20 01:11 | -15.87263 | -47.91801 | 3471 ft | 0 kts | 356° |
| 2026-04-20 01:11 | -15.87256 | -47.91800 | 3500 ft | 0 kts | 356° |
| 2026-04-20 01:32 | -15.87271 | -47.91799 | 3470 ft | 4 kts | 356° |
| 2026-04-20 01:32 | -15.87298 | -47.91798 | 3471 ft | 4 kts | 7° |
| 2026-04-20 01:33 | -15.87320 | -47.91806 | 3472 ft | 4 kts | 60° |
| 2026-04-20 01:33 | -15.87323 | -47.91812 | 3472 ft | 0 kts | 86° |
| 2026-04-20 01:35 | -15.87321 | -47.91776 | 3472 ft | 9 kts | 85° |
| 2026-04-20 01:35 | -15.87319 | -47.91692 | 3471 ft | 13 kts | 106° |
| 2026-04-20 01:36 | -15.87405 | -47.91662 | 3471 ft | 14 kts | 177° |
| 2026-04-20 01:36 | -15.87512 | -47.91655 | 3469 ft | 17 kts | 176° |
| 2026-04-20 01:36 | -15.87640 | -47.91647 | 3464 ft | 15 kts | 176° |
| 2026-04-20 01:36 | -15.87735 | -47.91685 | 3463 ft | 17 kts | 249° |
| 2026-04-20 01:37 | -15.87746 | -47.91804 | 3465 ft | 16 kts | 267° |
| 2026-04-20 01:37 | -15.87751 | -47.91920 | 3468 ft | 16 kts | 266° |
| 2026-04-20 01:37 | -15.87760 | -47.92054 | 3470 ft | 21 kts | 265° |
| 2026-04-20 01:37 | -15.87771 | -47.92214 | 3473 ft | 25 kts | 266° |
| 2026-04-20 01:38 | -15.87783 | -47.92406 | 3476 ft | 28 kts | 266° |
| 2026-04-20 01:38 | -15.87797 | -47.92611 | 3477 ft | 31 kts | 265° |
| 2026-04-20 01:38 | -15.87813 | -47.92840 | 3481 ft | 31 kts | 266° |
| 2026-04-20 01:38 | -15.87826 | -47.93058 | 3483 ft | 30 kts | 266° |
| 2026-04-20 01:39 | -15.87840 | -47.93266 | 3495 ft | 27 kts | 266° |
| 2026-04-20 01:39 | -15.87851 | -47.93448 | 3498 ft | 25 kts | 266° |
| 2026-04-20 01:39 | -15.87862 | -47.93628 | 3511 ft | 24 kts | 266° |
| 2026-04-20 01:39 | -15.87872 | -47.93792 | 3511 ft | 22 kts | 266° |
| 2026-04-20 01:40 | -15.87883 | -47.93946 | 3509 ft | 16 kts | 259° |
| 2026-04-20 01:40 | -15.87969 | -47.93999 | 3513 ft | 16 kts | 178° |
| 2026-04-20 01:40 | -15.88063 | -47.93970 | 3517 ft | 14 kts | 114° |
| 2026-04-20 01:40 | -15.88063 | -47.93938 | 3517 ft | 0 kts | 85° |
| 2026-04-20 01:41 | -15.88058 | -47.93868 | 3511 ft | 40 kts | 85° |
| 2026-04-20 01:41 | -15.88022 | -47.93310 | 3498 ft | 112 kts | 86° |
| 2026-04-20 01:41 | -15.87955 | -47.92296 | 3479 ft | 167 kts | 86° |
| 2026-04-20 01:42 | -15.87880 | -47.90984 | 3781 ft | 189 kts | 91° |
| 2026-04-20 01:42 | -15.88260 | -47.89673 | 4458 ft | 196 kts | 126° |
| 2026-04-20 01:42 | -15.89379 | -47.88803 | 4974 ft | 214 kts | 156° |
| 2026-04-20 01:42 | -15.90916 | -47.88384 | 5143 ft | 244 kts | 168° |
| 2026-04-20 01:43 | -15.92680 | -47.88098 | 5481 ft | 267 kts | 170° |
| 2026-04-20 01:43 | -15.94531 | -47.87790 | 6153 ft | 275 kts | 169° |
| 2026-04-20 01:43 | -15.96419 | -47.87448 | 6949 ft | 278 kts | 174° |
| 2026-04-20 01:43 | -15.98338 | -47.87668 | 7732 ft | 282 kts | 199° |
| 2026-04-20 01:44 | -16.00022 | -47.88719 | 8512 ft | 287 kts | 224° |
| 2026-04-20 01:44 | -16.01288 | -47.90337 | 9313 ft | 290 kts | 232° |
| 2026-04-20 01:44 | -16.02508 | -47.92026 | 10081 ft | 294 kts | 232° |
| 2026-04-20 01:44 | -16.03767 | -47.93769 | 10432 ft | 313 kts | 232° |
| 2026-04-20 01:45 | -16.05078 | -47.95578 | 10700 ft | 331 kts | 232° |
| 2026-04-20 01:45 | -16.06497 | -47.97538 | 11284 ft | 338 kts | 232° |
| 2026-04-20 01:45 | -16.07900 | -47.99479 | 11938 ft | 342 kts | 232° |
| 2026-04-20 01:45 | -16.09358 | -48.01488 | 12616 ft | 346 kts | 232° |
| 2026-04-20 01:46 | -16.10817 | -48.03492 | 13268 ft | 350 kts | 232° |
| 2026-04-20 01:46 | -16.12239 | -48.05443 | 13886 ft | 353 kts | 232° |
| 2026-04-20 01:46 | -16.13727 | -48.07491 | 14460 ft | 356 kts | 232° |
| 2026-04-20 01:46 | -16.15226 | -48.09560 | 15045 ft | 359 kts | 232° |
| 2026-04-20 01:47 | -16.16732 | -48.11643 | 15627 ft | 361 kts | 232° |
| 2026-04-20 01:47 | -16.18248 | -48.13744 | 16214 ft | 364 kts | 232° |
| 2026-04-20 01:47 | -16.19777 | -48.15855 | 16798 ft | 366 kts | 232° |
| 2026-04-20 01:47 | -16.21316 | -48.17976 | 17373 ft | 369 kts | 232° |
| 2026-04-20 01:48 | -16.22873 | -48.20118 | 17950 ft | 371 kts | 232° |
| 2026-04-20 01:48 | -16.24437 | -48.22268 | 18481 ft | 374 kts | 232° |
| 2026-04-20 01:48 | -16.26007 | -48.24434 | 18973 ft | 376 kts | 232° |
| 2026-04-20 01:48 | -16.27584 | -48.26617 | 19476 ft | 378 kts | 232° |
| 2026-04-20 01:49 | -16.29171 | -48.28811 | 19984 ft | 380 kts | 232° |
| 2026-04-20 01:49 | -16.30766 | -48.31014 | 20494 ft | 382 kts | 232° |
| 2026-04-20 01:49 | -16.32371 | -48.33232 | 21001 ft | 384 kts | 232° |
| 2026-04-20 01:49 | -16.33981 | -48.35459 | 21506 ft | 386 kts | 232° |
| 2026-04-20 01:50 | -16.35582 | -48.37672 | 21999 ft | 388 kts | 232° |
| 2026-04-20 01:50 | -16.37213 | -48.39926 | 22500 ft | 391 kts | 232° |
| 2026-04-20 01:50 | -16.38823 | -48.42154 | 22986 ft | 393 kts | 232° |
| 2026-04-20 01:50 | -16.40470 | -48.44434 | 23476 ft | 395 kts | 232° |
| 2026-04-20 01:51 | -16.42128 | -48.46733 | 23891 ft | 397 kts | 232° |
| 2026-04-20 01:51 | -16.43743 | -48.48972 | 24289 ft | 399 kts | 232° |
| 2026-04-20 01:51 | -16.45410 | -48.51284 | 24709 ft | 399 kts | 232° |
| 2026-04-20 01:51 | -16.46516 | -48.52817 | 24982 ft | 400 kts | 232° |
| 2026-04-20 01:52 | -16.48188 | -48.55139 | 25383 ft | 401 kts | 232° |
| 2026-04-20 01:52 | -16.49861 | -48.57464 | 25804 ft | 401 kts | 232° |
| 2026-04-20 01:52 | -16.51538 | -48.59796 | 26195 ft | 402 kts | 233° |
| 2026-04-20 01:52 | -16.53217 | -48.62126 | 26580 ft | 403 kts | 233° |
| 2026-04-20 01:53 | -16.54870 | -48.64493 | 26953 ft | 404 kts | 237° |
| 2026-04-20 01:53 | -16.56213 | -48.67067 | 27313 ft | 405 kts | 242° |
| 2026-04-20 01:53 | -16.57488 | -48.69692 | 27666 ft | 406 kts | 242° |
| 2026-04-20 01:53 | -16.58770 | -48.72318 | 28021 ft | 407 kts | 242° |
| 2026-04-20 01:54 | -16.60059 | -48.74948 | 28364 ft | 408 kts | 242° |
| 2026-04-20 01:54 | -16.61355 | -48.77583 | 28697 ft | 409 kts | 242° |
| 2026-04-20 01:54 | -16.62654 | -48.80220 | 29044 ft | 410 kts | 242° |
| 2026-04-20 01:54 | -16.63956 | -48.82869 | 29378 ft | 410 kts | 242° |
| 2026-04-20 01:55 | -16.65256 | -48.85522 | 29703 ft | 411 kts | 242° |
| 2026-04-20 01:55 | -16.66556 | -48.88182 | 30026 ft | 412 kts | 242° |
| 2026-04-20 01:55 | -16.67858 | -48.90851 | 30296 ft | 413 kts | 242° |
| 2026-04-20 01:55 | -16.69163 | -48.93525 | 30546 ft | 414 kts | 242° |
| 2026-04-20 01:56 | -16.70467 | -48.96200 | 30797 ft | 415 kts | 242° |
| 2026-04-20 01:56 | -16.71776 | -48.98888 | 31043 ft | 415 kts | 242° |
| 2026-04-20 01:56 | -16.73083 | -49.01576 | 31277 ft | 416 kts | 242° |
| 2026-04-20 01:56 | -16.74393 | -49.04272 | 31520 ft | 417 kts | 242° |
| 2026-04-20 01:57 | -16.75703 | -49.06963 | 31853 ft | 415 kts | 242° |
| 2026-04-20 01:57 | -16.77006 | -49.09637 | 32192 ft | 413 kts | 242° |
| 2026-04-20 01:57 | -16.78301 | -49.12290 | 32528 ft | 411 kts | 242° |
| 2026-04-20 01:57 | -16.79580 | -49.14906 | 32866 ft | 410 kts | 242° |
| 2026-04-20 01:58 | -16.80868 | -49.17551 | 33211 ft | 408 kts | 242° |
| 2026-04-20 01:58 | -16.82150 | -49.20188 | 33548 ft | 406 kts | 243° |
| 2026-04-20 01:58 | -16.83425 | -49.22812 | 33873 ft | 405 kts | 243° |
| 2026-04-20 01:58 | -16.84698 | -49.25435 | 34005 ft | 402 kts | 243° |
| 2026-04-20 01:59 | -16.87177 | -49.30541 | 34024 ft | 390 kts | 243° |
| 2026-04-20 01:59 | -16.89603 | -49.35538 | 33996 ft | 388 kts | 243° |
| 2026-04-20 02:00 | -16.92034 | -49.40552 | 33997 ft | 386 kts | 243° |
| 2026-04-20 02:00 | -16.94457 | -49.45567 | 33994 ft | 387 kts | 243° |
| 2026-04-20 02:01 | -16.96833 | -49.50481 | 33993 ft | 386 kts | 243° |
| 2026-04-20 02:01 | -16.99262 | -49.55492 | 33989 ft | 386 kts | 243° |
| 2026-04-20 02:02 | -17.01688 | -49.60500 | 33986 ft | 386 kts | 243° |
| 2026-04-20 02:02 | -17.04106 | -49.65509 | 33983 ft | 386 kts | 243° |
| 2026-04-20 02:03 | -17.06496 | -49.70477 | 33982 ft | 387 kts | 243° |
| 2026-04-20 02:03 | -17.08913 | -49.75499 | 33982 ft | 386 kts | 243° |
| 2026-04-20 02:04 | -17.11333 | -49.80511 | 33977 ft | 386 kts | 243° |
| 2026-04-20 02:04 | -17.13759 | -49.85529 | 33972 ft | 386 kts | 243° |
| 2026-04-20 02:05 | -17.16158 | -49.90519 | 33976 ft | 387 kts | 243° |
| 2026-04-20 02:05 | -17.18585 | -49.95584 | 33978 ft | 387 kts | 243° |
| 2026-04-20 02:06 | -17.20409 | -50.00814 | 33978 ft | 389 kts | 259° |
| 2026-04-20 02:06 | -17.20226 | -50.06511 | 33974 ft | 397 kts | 275° |
| 2026-04-20 02:07 | -17.19333 | -50.12211 | 33970 ft | 398 kts | 275° |
| 2026-04-20 02:07 | -17.18463 | -50.17841 | 33971 ft | 398 kts | 275° |
| 2026-04-20 02:08 | -17.17582 | -50.23554 | 33973 ft | 398 kts | 275° |
| 2026-04-20 02:08 | -17.16692 | -50.29269 | 33975 ft | 398 kts | 275° |
| 2026-04-20 02:09 | -17.15799 | -50.34982 | 33977 ft | 398 kts | 275° |
| 2026-04-20 02:09 | -17.14909 | -50.40694 | 33978 ft | 398 kts | 275° |
| 2026-04-20 02:10 | -17.14016 | -50.46408 | 33963 ft | 398 kts | 275° |
| 2026-04-20 02:10 | -17.13128 | -50.52048 | 33963 ft | 399 kts | 275° |
| 2026-04-20 02:11 | -17.12230 | -50.57772 | 33962 ft | 399 kts | 275° |
| 2026-04-20 02:11 | -17.11345 | -50.63395 | 33969 ft | 400 kts | 275° |
| 2026-04-20 02:12 | -17.10439 | -50.69131 | 33972 ft | 400 kts | 275° |
| 2026-04-20 02:12 | -17.09530 | -50.74874 | 33976 ft | 400 kts | 275° |
| 2026-04-20 02:13 | -17.08627 | -50.80618 | 33979 ft | 401 kts | 275° |
| 2026-04-20 02:13 | -17.07729 | -50.86293 | 33981 ft | 401 kts | 275° |
| 2026-04-20 02:14 | -17.06809 | -50.92045 | 33982 ft | 401 kts | 275° |
| 2026-04-20 02:14 | -17.05897 | -50.97727 | 33986 ft | 401 kts | 275° |
| 2026-04-20 02:15 | -17.04983 | -51.03480 | 33983 ft | 402 kts | 275° |
| 2026-04-20 02:15 | -17.04063 | -51.09236 | 33988 ft | 401 kts | 275° |
| 2026-04-20 02:16 | -17.03144 | -51.14991 | 33988 ft | 401 kts | 275° |
| 2026-04-20 02:16 | -17.02231 | -51.20742 | 33975 ft | 401 kts | 275° |
| 2026-04-20 02:17 | -17.01311 | -51.26464 | 33975 ft | 402 kts | 275° |
| 2026-04-20 02:17 | -17.00383 | -51.32221 | 33972 ft | 402 kts | 275° |
| 2026-04-20 02:18 | -16.99460 | -51.37955 | 33971 ft | 403 kts | 275° |
| 2026-04-20 02:18 | -16.98533 | -51.43728 | 33976 ft | 403 kts | 276° |
| 2026-04-20 02:19 | -16.97596 | -51.49505 | 33980 ft | 403 kts | 276° |
| 2026-04-20 02:19 | -16.96668 | -51.55211 | 33986 ft | 404 kts | 276° |
| 2026-04-20 02:20 | -16.95731 | -51.60999 | 33983 ft | 404 kts | 276° |
| 2026-04-20 02:20 | -16.94794 | -51.66782 | 33985 ft | 404 kts | 276° |
| 2026-04-20 02:21 | -16.93370 | -51.75430 | 33993 ft | 404 kts | 276° |
| 2026-04-20 02:22 | -16.92415 | -51.81252 | 34000 ft | 404 kts | 276° |
| 2026-04-20 02:22 | -16.91476 | -51.87001 | 33980 ft | 404 kts | 276° |
| 2026-04-20 02:23 | -16.90541 | -51.92716 | 33983 ft | 405 kts | 276° |
| 2026-04-20 02:23 | -16.89588 | -51.98519 | 33985 ft | 406 kts | 276° |
| 2026-04-20 02:24 | -16.88628 | -52.04330 | 33984 ft | 406 kts | 276° |
| 2026-04-20 02:24 | -16.87697 | -52.09985 | 34001 ft | 406 kts | 276° |
| 2026-04-20 02:25 | -16.86740 | -52.15795 | 33991 ft | 406 kts | 276° |
| 2026-04-20 02:25 | -16.85779 | -52.21605 | 33996 ft | 406 kts | 276° |
| 2026-04-20 02:26 | -16.84821 | -52.27376 | 33988 ft | 406 kts | 276° |
| 2026-04-20 02:26 | -16.83856 | -52.33178 | 33984 ft | 406 kts | 276° |
| 2026-04-20 02:27 | -16.82892 | -52.38983 | 33977 ft | 406 kts | 276° |
| 2026-04-20 02:27 | -16.81923 | -52.44790 | 33977 ft | 406 kts | 276° |
| 2026-04-20 02:28 | -16.80946 | -52.50597 | 33972 ft | 406 kts | 276° |
| 2026-04-20 02:28 | -16.79975 | -52.56400 | 33970 ft | 406 kts | 276° |
| 2026-04-20 02:29 | -16.79010 | -52.62203 | 33965 ft | 406 kts | 276° |
| 2026-04-20 02:29 | -16.78038 | -52.68019 | 33962 ft | 407 kts | 276° |
| 2026-04-20 02:30 | -16.77053 | -52.73843 | 33964 ft | 408 kts | 276° |
| 2026-04-20 02:30 | -16.76066 | -52.79675 | 33964 ft | 408 kts | 276° |
| 2026-04-20 02:31 | -16.75100 | -52.85403 | 33964 ft | 408 kts | 276° |
| 2026-04-20 02:31 | -16.74120 | -52.91239 | 33965 ft | 408 kts | 276° |
| 2026-04-20 02:32 | -16.73153 | -52.96979 | 33975 ft | 409 kts | 276° |
| 2026-04-20 02:32 | -16.72161 | -53.02819 | 33973 ft | 409 kts | 276° |
| 2026-04-20 02:33 | -16.71173 | -53.08587 | 33966 ft | 409 kts | 276° |
| 2026-04-20 02:33 | -16.70106 | -53.14417 | 33967 ft | 410 kts | 278° |
| 2026-04-20 02:34 | -16.68898 | -53.20232 | 33972 ft | 410 kts | 278° |
| 2026-04-20 02:34 | -16.67672 | -53.26039 | 33977 ft | 410 kts | 278° |
| 2026-04-20 02:35 | -16.66486 | -53.31783 | 33979 ft | 410 kts | 278° |
| 2026-04-20 02:35 | -16.65310 | -53.37566 | 33962 ft | 411 kts | 278° |
| 2026-04-20 02:36 | -16.64121 | -53.43397 | 33969 ft | 412 kts | 278° |
| 2026-04-20 02:36 | -16.62922 | -53.49233 | 33963 ft | 412 kts | 278° |
| 2026-04-20 02:37 | -16.61712 | -53.55077 | 33966 ft | 412 kts | 278° |
| 2026-04-20 02:37 | -16.60503 | -53.60924 | 33973 ft | 412 kts | 278° |
| 2026-04-20 02:38 | -16.59314 | -53.66689 | 33976 ft | 413 kts | 278° |
| 2026-04-20 02:38 | -16.58123 | -53.72469 | 33972 ft | 413 kts | 278° |
| 2026-04-20 02:39 | -16.56914 | -53.78325 | 33973 ft | 413 kts | 278° |
| 2026-04-20 02:39 | -16.55721 | -53.84104 | 33974 ft | 413 kts | 278° |
| 2026-04-20 02:40 | -16.54726 | -53.88890 | 33969 ft | 413 kts | 278° |
| 2026-04-20 02:40 | -16.53302 | -53.95722 | 33971 ft | 413 kts | 278° |
| 2026-04-20 02:41 | -16.52294 | -54.00582 | 33960 ft | 413 kts | 278° |
| 2026-04-20 02:41 | -16.51077 | -54.06437 | 33960 ft | 414 kts | 278° |
| 2026-04-20 02:42 | -16.49862 | -54.12266 | 33955 ft | 414 kts | 278° |
| 2026-04-20 02:42 | -16.48643 | -54.18077 | 33958 ft | 415 kts | 278° |
| 2026-04-20 02:43 | -16.47415 | -54.23950 | 33958 ft | 415 kts | 278° |
| 2026-04-20 02:43 | -16.46207 | -54.29755 | 33957 ft | 415 kts | 278° |
| 2026-04-20 02:44 | -16.44986 | -54.35595 | 33960 ft | 415 kts | 278° |
| 2026-04-20 02:44 | -16.43746 | -54.41470 | 33964 ft | 415 kts | 278° |
| 2026-04-20 02:45 | -16.42506 | -54.47346 | 33966 ft | 415 kts | 278° |
| 2026-04-20 02:45 | -16.41264 | -54.53234 | 33968 ft | 415 kts | 278° |
| 2026-04-20 02:46 | -16.40025 | -54.59113 | 33965 ft | 416 kts | 278° |
| 2026-04-20 02:46 | -16.38779 | -54.64990 | 33966 ft | 416 kts | 278° |
| 2026-04-20 02:47 | -16.37537 | -54.70870 | 33970 ft | 415 kts | 278° |
| 2026-04-20 02:47 | -16.36289 | -54.76748 | 33959 ft | 416 kts | 278° |
| 2026-04-20 02:48 | -16.35046 | -54.82594 | 33896 ft | 416 kts | 279° |
| 2026-04-20 02:48 | -16.34422 | -54.85519 | 33629 ft | 410 kts | 279° |
| 2026-04-20 02:48 | -16.33807 | -54.88398 | 33235 ft | 404 kts | 279° |
| 2026-04-20 02:48 | -16.33205 | -54.91248 | 32745 ft | 401 kts | 279° |
| 2026-04-20 02:49 | -16.32619 | -54.94018 | 32275 ft | 398 kts | 279° |
| 2026-04-20 02:49 | -16.32012 | -54.96875 | 31790 ft | 395 kts | 279° |
| 2026-04-20 02:49 | -16.31417 | -54.99657 | 31331 ft | 393 kts | 279° |
| 2026-04-20 02:49 | -16.30824 | -55.02424 | 30868 ft | 390 kts | 279° |
| 2026-04-20 02:50 | -16.30253 | -55.05098 | 30430 ft | 388 kts | 279° |
| 2026-04-20 02:50 | -16.29667 | -55.07838 | 29970 ft | 386 kts | 279° |
| 2026-04-20 02:50 | -16.29083 | -55.10555 | 29496 ft | 382 kts | 279° |
| 2026-04-20 02:50 | -16.28512 | -55.13208 | 29075 ft | 378 kts | 279° |
| 2026-04-20 02:51 | -16.27939 | -55.15868 | 28659 ft | 375 kts | 279° |
| 2026-04-20 02:51 | -16.27366 | -55.18536 | 28241 ft | 371 kts | 279° |
| 2026-04-20 02:51 | -16.26816 | -55.21110 | 27837 ft | 367 kts | 279° |
| 2026-04-20 02:51 | -16.26261 | -55.23697 | 27425 ft | 364 kts | 279° |
| 2026-04-20 02:52 | -16.25705 | -55.26255 | 27023 ft | 362 kts | 282° |
| 2026-04-20 02:52 | -16.24828 | -55.28718 | 26564 ft | 365 kts | 294° |
| 2026-04-20 02:52 | -16.23458 | -55.30954 | 26112 ft | 368 kts | 304° |
| 2026-04-20 02:52 | -16.21892 | -55.33057 | 25639 ft | 367 kts | 304° |
| 2026-04-20 02:53 | -16.20320 | -55.35163 | 25149 ft | 368 kts | 304° |
| 2026-04-20 02:53 | -16.18755 | -55.37268 | 24652 ft | 368 kts | 304° |
| 2026-04-20 02:53 | -16.17232 | -55.39323 | 24168 ft | 369 kts | 304° |
| 2026-04-20 02:53 | -16.15663 | -55.41447 | 23669 ft | 371 kts | 305° |
| 2026-04-20 02:54 | -16.14087 | -55.43582 | 23103 ft | 372 kts | 305° |
| 2026-04-20 02:54 | -16.12506 | -55.45717 | 22593 ft | 372 kts | 305° |
| 2026-04-20 02:54 | -16.10928 | -55.47845 | 22093 ft | 371 kts | 306° |
| 2026-04-20 02:54 | -16.09349 | -55.49970 | 21598 ft | 371 kts | 306° |
| 2026-04-20 02:55 | -16.07796 | -55.52061 | 21116 ft | 371 kts | 306° |
| 2026-04-20 02:55 | -16.06221 | -55.54180 | 20643 ft | 370 kts | 307° |
| 2026-04-20 02:55 | -16.04647 | -55.56296 | 20167 ft | 370 kts | 307° |
| 2026-04-20 02:55 | -16.03071 | -55.58410 | 19690 ft | 370 kts | 307° |
| 2026-04-20 02:56 | -16.01496 | -55.60523 | 19219 ft | 370 kts | 307° |
| 2026-04-20 02:56 | -15.99924 | -55.62634 | 18752 ft | 370 kts | 308° |
| 2026-04-20 02:56 | -15.98349 | -55.64746 | 18282 ft | 370 kts | 308° |
| 2026-04-20 02:56 | -15.96786 | -55.66843 | 17838 ft | 364 kts | 308° |
| 2026-04-20 02:57 | -15.95263 | -55.68889 | 17302 ft | 352 kts | 308° |
| 2026-04-20 02:57 | -15.93795 | -55.70864 | 16883 ft | 338 kts | 308° |
| 2026-04-20 02:57 | -15.92382 | -55.72763 | 16477 ft | 326 kts | 308° |
| 2026-04-20 02:57 | -15.91015 | -55.74600 | 16089 ft | 318 kts | 308° |
| 2026-04-20 02:58 | -15.89658 | -55.76421 | 15699 ft | 319 kts | 308° |
| 2026-04-20 02:58 | -15.88333 | -55.78197 | 15318 ft | 319 kts | 308° |
| 2026-04-20 02:58 | -15.86971 | -55.80023 | 14927 ft | 320 kts | 308° |
| 2026-04-20 02:58 | -15.85605 | -55.81854 | 14540 ft | 321 kts | 308° |
| 2026-04-20 02:59 | -15.84235 | -55.83688 | 14154 ft | 321 kts | 308° |
| 2026-04-20 02:59 | -15.82867 | -55.85520 | 13758 ft | 322 kts | 308° |
| 2026-04-20 02:59 | -15.81490 | -55.87360 | 13317 ft | 322 kts | 308° |
| 2026-04-20 02:59 | -15.80119 | -55.89193 | 12926 ft | 320 kts | 308° |
| 2026-04-20 03:00 | -15.78775 | -55.90989 | 12520 ft | 308 kts | 308° |
| 2026-04-20 03:00 | -15.77532 | -55.92643 | 12160 ft | 296 kts | 310° |
| 2026-04-20 03:00 | -15.76069 | -55.94121 | 11792 ft | 293 kts | 324° |
| 2026-04-20 03:00 | -15.74328 | -55.95206 | 11414 ft | 293 kts | 334° |
| 2026-04-20 03:01 | -15.72509 | -55.96166 | 11045 ft | 293 kts | 334° |
| 2026-04-20 03:01 | -15.70690 | -55.97131 | 10650 ft | 294 kts | 334° |
| 2026-04-20 03:01 | -15.68865 | -55.98102 | 10258 ft | 295 kts | 334° |
| 2026-04-20 03:01 | -15.67035 | -55.99076 | 9860 ft | 296 kts | 334° |
| 2026-04-20 03:02 | -15.65198 | -56.00056 | 9420 ft | 297 kts | 334° |
| 2026-04-20 03:02 | -15.63363 | -56.01035 | 9011 ft | 296 kts | 334° |
| 2026-04-20 03:02 | -15.61532 | -56.02012 | 8646 ft | 293 kts | 334° |
| 2026-04-20 03:02 | -15.59715 | -56.02982 | 8238 ft | 292 kts | 334° |
| 2026-04-20 03:03 | -15.57919 | -56.03941 | 7747 ft | 288 kts | 334° |
| 2026-04-20 03:03 | -15.56169 | -56.04874 | 7288 ft | 279 kts | 334° |
| 2026-04-20 03:03 | -15.54472 | -56.05777 | 6860 ft | 269 kts | 335° |
| 2026-04-20 03:03 | -15.52831 | -56.06650 | 6441 ft | 260 kts | 335° |
| 2026-04-20 03:04 | -15.51223 | -56.07505 | 6006 ft | 261 kts | 335° |
| 2026-04-20 03:04 | -15.49602 | -56.08363 | 5571 ft | 262 kts | 335° |
| 2026-04-20 03:04 | -15.47975 | -56.09238 | 5137 ft | 264 kts | 331° |
| 2026-04-20 03:04 | -15.46664 | -56.10554 | 4703 ft | 269 kts | 302° |
| 2026-04-20 03:05 | -15.46145 | -56.12415 | 4202 ft | 275 kts | 271° |
| 2026-04-20 03:05 | -15.46609 | -56.14342 | 3667 ft | 281 kts | 244° |
| 2026-04-20 03:05 | -15.47474 | -56.16084 | 3188 ft | 277 kts | 243° |
| 2026-04-20 03:05 | -15.48420 | -56.17744 | 2978 ft | 256 kts | 228° |
| 2026-04-20 03:06 | -15.49804 | -56.18745 | 2887 ft | 235 kts | 197° |
| 2026-04-20 03:06 | -15.51347 | -56.18894 | 2781 ft | 215 kts | 167° |
| 2026-04-20 03:06 | -15.52662 | -56.18373 | 2712 ft | 194 kts | 151° |
| 2026-04-20 03:06 | -15.53823 | -56.17761 | 2602 ft | 182 kts | 151° |
| 2026-04-20 03:07 | -15.54920 | -56.17181 | 2505 ft | 171 kts | 150° |
| 2026-04-20 03:07 | -15.55935 | -56.16643 | 2425 ft | 159 kts | 150° |
| 2026-04-20 03:07 | -15.56894 | -56.16136 | 2387 ft | 153 kts | 150° |
| 2026-04-20 03:07 | -15.57822 | -56.15643 | 2184 ft | 151 kts | 150° |
| 2026-04-20 03:08 | -15.58752 | -56.15149 | 1963 ft | 149 kts | 150° |
| 2026-04-20 03:08 | -15.59674 | -56.14659 | 1751 ft | 149 kts | 151° |
| 2026-04-20 03:08 | -15.60577 | -56.14178 | 1542 ft | 149 kts | 151° |
| 2026-04-20 03:08 | -15.61497 | -56.13690 | 1339 ft | 148 kts | 152° |
| 2026-04-20 03:09 | -15.62413 | -56.13219 | 1086 ft | 145 kts | 152° |
| 2026-04-20 03:09 | -15.63298 | -56.12733 | 900 ft | 144 kts | 152° |
| 2026-04-20 03:09 | -15.64185 | -56.12258 | 696 ft | 143 kts | 153° |
| 2026-04-20 03:09 | -15.65022 | -56.11811 | 610 ft | 121 kts | 153° |
| 2026-04-20 03:10 | -15.65503 | -56.11557 | 601 ft | 32 kts | 153° |
| 2026-04-20 03:10 | -15.65613 | -56.11498 | 601 ft | 19 kts | 153° |
| 2026-04-20 03:10 | -15.65779 | -56.11414 | 600 ft | 33 kts | 153° |
| 2026-04-20 03:10 | -15.65963 | -56.11327 | 599 ft | 13 kts | 171° |
| 2026-04-20 03:11 | -15.65957 | -56.11313 | 600 ft | 13 kts | 320° |
| 2026-04-20 03:11 | -15.65828 | -56.11382 | 598 ft | 30 kts | 334° |
| 2026-04-20 03:11 | -15.65611 | -56.11498 | 601 ft | 39 kts | 333° |
| 2026-04-20 03:11 | -15.65372 | -56.11627 | 603 ft | 38 kts | 333° |
| 2026-04-20 03:12 | -15.65202 | -56.11724 | 603 ft | 15 kts | 308° |
| 2026-04-20 03:12 | -15.65216 | -56.11801 | 613 ft | 10 kts | 239° |
| 2026-04-20 03:12 | -15.65179 | -56.11863 | 611 ft | 13 kts | 334° |
| 2026-04-20 03:12 | -15.65091 | -56.11909 | 609 ft | 14 kts | 334° |
| 2026-04-20 03:13 | -15.65039 | -56.11961 | 612 ft | 7 kts | 254° |
| 2026-04-20 03:13 | -15.65053 | -56.11985 | 613 ft | 0 kts | 242° |